Data for 05/31/2009

Time Sea-Level Adjusted Pressure Absolute Pressure Temperature Relative Humidity Dew Point   
(mb) (inHg) (mb) (inHg) (C) (F) (%) (C) (F)
00:05 1017 30.03 846 24.98 16.8 62.3 53 7.3 45.2
00:10 1017 30.03 846 24.98 16.7 62.1 54 7.4 45.3
00:15 1017 30.03 846 24.98 16.5 61.6 56 7.7 45.9
00:20 1017 30.03 846 24.98 16.1 61 57 7.7 45.9
00:25 1017 30.03 846 24.98 16 60.7 57 7.5 45.5
00:30 1017 30.03 846 24.98 15.9 60.6 56 7.3 45.1
00:35 1017 30.03 846 24.98 15.9 60.6 59 8.1 46.5
00:40 1017 30.03 846 24.98 16 60.9 55 7.2 44.9
00:45 1017 30.03 846 24.98 16.3 61.4 54 7.1 44.7
00:50 1017 30.03 846 24.98 16.5 61.7 55 7.5 45.4
00:55 1017 30.03 846 24.98 16.1 61 58 7.9 46.3
01:00 1017 30.03 846 24.98 15.4 59.7 59 7.6 45.7
01:05 1017 30.03 846 24.98 15.1 59.3 58 7 44.7
01:10 1017 30.03 846 24.98 15.2 59.4 56 6.7 44.1
01:15 1017 30.03 846 24.98 15.5 59.8 55 6.6 43.9
01:20 1017 30.03 846 24.98 15.5 60 58 7.3 45.2
01:25 1017 30.03 846 24.98 15.4 59.8 56 6.7 44
01:30 1017 30.03 846 24.98 15.7 60.3 53 6.2 43.1
01:35 1017 30.03 846 24.98 16.1 61 50 5.8 42.5
01:40 1017 30.03 846 24.98 16 60.9 57 7.7 45.8
01:45 1017 30.03 846 24.98 14.8 58.6 61 7.5 45.6
01:50 1017 30.03 846 24.98 14.3 57.8 62 7.2 45
01:55 1017 30.03 846 24.98 14.3 57.7 62 7.1 44.8
02:00 1017 30.03 846 24.98 14.3 57.7 62 7.2 44.9
02:05 1017 30.03 846 24.98 14.2 57.6 64 7.6 45.8
02:10 1017 30.03 846 24.98 13.8 56.9 64 7.2 44.9
02:15 1017 30.03 846 24.98 13.7 56.7 64 7.1 44.9
02:20 1017 30.03 846 24.98 13.6 56.5 64 7.1 44.7
02:25 1017 30.03 846 24.98 13.6 56.4 64 6.9 44.5
02:30 1017 30.03 846 24.98 13.6 56.5 63 6.7 44.1
02:35 1017 30.03 846 24.98 13.8 56.8 59 5.9 42.5
02:40 1017 30.03 846 24.98 14 57.1 58 5.9 42.6
02:45 1017 30.03 846 24.98 14 57.3 56 5.4 41.7
02:50 1017 30.03 846 24.98 14.3 57.8 58 6.2 43.2
02:55 1017 30.03 846 24.98 13.5 56.4 59 5.8 42.5
03:00 1017 30.03 846 24.98 13.6 56.5 61 6.2 43.2
03:05 1017 30.03 846 24.98 13 55.4 63 6.2 43.2
03:10 1017 30.03 846 24.98 12.9 55.2 59 5.2 41.3
03:15 1017 30.03 846 24.98 13.3 56 59 5.5 41.9
03:20 1017 30.03 846 24.98 13.4 56.1 62 6.2 43.2
03:25 1017 30.03 846 24.98 13.2 55.8 63 6.3 43.4
03:30 1017 30.03 846 24.98 13.2 55.8 62 6.2 43.2
03:35 1017 30.03 846 24.98 13.5 56.3 60 6.1 42.9
03:40 1017 30.03 846 24.98 13.4 56.2 63 6.5 43.7
03:45 1017 30.03 846 24.98 13.1 55.6 63 6.3 43.3
03:50 1017 30.03 846 24.98 13 55.3 63 6.1 43
03:55 1017 30.03 846 24.98 12.8 55 62 5.7 42.3
04:00 1017 30.03 846 24.98 12.9 55.3 61 5.6 42
04:05 1017 30.03 846 24.98 12.8 55.1 60 5.3 41.6
04:10 1017 30.03 846 24.98 12.5 54.6 61 5.3 41.6
04:15 1017 30.03 846 24.98 12.3 54.1 62 5.2 41.4
04:20 1017 30.03 846 24.98 12.2 54 62 5.1 41.2
04:25 1017 30.03 846 24.98 12.2 53.9 63 5.3 41.6
04:30 1017 30.03 846 24.98 12.1 53.7 62 5.1 41.2
04:35 1017 30.03 846 24.98 12.1 53.8 62 5.1 41.2
04:40 1017 30.03 846 24.98 12.2 54 60 4.8 40.7
04:45 1017 30.03 846 24.98 12.4 54.2 60 4.9 40.8
04:50 1017 30.03 846 24.98 12.4 54.4 59 4.7 40.5
04:55 1017 30.03 846 24.98 12.2 53.9 62 5.1 41.3
05:00 1017 30.03 846 24.98 11.6 53 64 5.1 41.2
05:05 1017 30.03 846 24.98 11.2 52.2 66 5.1 41.2
05:10 1017 30.03 846 24.98 11.1 52.1 67 5.2 41.3
05:15 1017 30.03 846 24.98 10.8 51.5 68 5.1 41.2
05:20 1017 30.03 846 24.98 10.6 51.1 68 5.1 41.1
05:25 1017 30.03 846 24.98 10.6 51 68 5 40.9
05:30 1017 30.03 847 25.01 10.6 51 68 5 40.9
05:35 1017 30.03 846 24.98 10.5 51 68 4.8 40.7
05:40 1017 30.03 847 25.01 10.7 51.3 65 4.4 39.9
05:45 1017 30.03 847 25.01 11.3 52.4 63 4.5 40.1
05:50 1017 30.03 847 25.01 11.5 52.6 63 4.6 40.4
05:55 1017 30.03 847 25.01 11.5 52.6 64 4.9 40.8
06:00 1017 30.03 847 25.01 11.1 51.9 66 5.1 41.2
06:05 1017 30.03 847 25.01 10.8 51.4 68 5.2 41.4
06:10 1017 30.03 847 25.01 10.8 51.4 69 5.3 41.5
06:15 1017 30.03 847 25.01 10.8 51.5 68 5.3 41.5
06:20 1017 30.03 847 25.01 10.9 51.6 67 5.1 41.1
06:25 1017 30.03 847 25.01 11 51.8 66 5 41.1
06:30 1018 30.06 847 25.01 11.2 52.2 65 4.9 40.9
06:35 1018 30.06 847 25.01 11.5 52.6 64 5 40.9
06:40 1018 30.06 847 25.01 11.7 53 64 5.1 41.2
06:45 1018 30.06 847 25.01 12 53.7 63 5.2 41.4
06:50 1018 30.06 847 25.01 12.3 54.2 62 5.3 41.6
06:55 1018 30.06 847 25.01 12.4 54.3 63 5.5 41.9
07:00 1018 30.06 847 25.01 12.5 54.5 62 5.4 41.8
07:05 1018 30.06 847 25.01 12.5 54.5 63 5.6 42.1
07:10 1018 30.06 847 25.01 12.4 54.3 63 5.7 42.3
07:15 1018 30.06 847 25.01 12.6 54.7 62 5.7 42.2
07:20 1018 30.06 847 25.01 12.7 54.8 63 5.8 42.4
07:25 1018 30.06 847 25.01 13 55.4 62 5.9 42.5
07:30 1018 30.06 847 25.01 13.5 56.2 59 5.8 42.4
07:35 1018 30.06 847 25.01 14.1 57.3 58 6.1 42.9
07:40 1018 30.06 847 25.01 14.6 58.2 56 6.1 42.9
07:45 1018 30.06 847 25.01 15.3 59.5 54 6 42.9
07:50 1018 30.06 847 25.01 15.4 59.7 53 6.1 42.9
07:55 1018 30.06 847 25.01 15.8 60.5 52 6.1 43
08:00 1018 30.06 847 25.01 15.7 60.2 54 6.6 43.8
08:05 1018 30.06 847 25.01 15.7 60.3 56 7.1 44.8
08:10 1018 30.06 847 25.01 16.1 60.9 54 6.7 44.1
08:15 1018 30.06 847 25.01 16.8 62.2 51 6.7 44
08:20 1018 30.06 847 25.01 16.9 62.3 53 7.2 45
08:25 1018 30.06 847 25.01 16.7 62 53 7.1 44.8
08:30 1018 30.06 847 25.01 16.7 62 51 6.6 43.8
08:35 1018 30.06 847 25.01 16.7 62 50 6.2 43.1
08:40 1018 30.06 847 25.01 16.9 62.5 48 6 42.9
08:45 1018 30.06 847 25.01 17.6 63.7 45 5.6 42
08:50 1018 30.06 847 25.01 18.3 64.9 44 5.8 42.5
08:55 1018 30.06 847 25.01 19.1 66.4 42 5.9 42.6
09:00 1018 30.06 847 25.01 19.5 67.1 40 5.6 42.1
09:05 1018 30.06 847 25.01 19.8 67.6 38 5.4 41.6
09:10 1018 30.06 847 25.01 19.8 67.6 38 5.2 41.4
09:15 1018 30.06 847 25.01 19.9 67.8 40 6.2 43.1
09:20 1018 30.06 847 25.01 19.8 67.7 38 5.3 41.5
09:25 1018 30.06 847 25.01 20.4 68.7 37 5.3 41.5
09:30 1018 30.06 847 25.01 20.4 68.7 35 4.7 40.5
09:35 1018 30.06 847 25.01 20.8 69.5 35 4.9 40.8
09:40 1018 30.06 847 25.01 21.3 70.4 34 5.1 41.2
09:45 1018 30.06 847 25.01 21.3 70.3 32 4.1 39.3
09:50 1018 30.06 847 25.01 21.3 70.4 33 4.6 40.2
09:55 1018 30.06 847 25.01 21.7 71.1 32 4.5 40
10:00 1018 30.06 847 25.01 21.9 71.4 30 3.9 39
10:05 1018 30.06 847 25.01 21.5 70.6 32 4.1 39.4
10:10 1018 30.06 847 25.01 21.9 71.5 31 4.2 39.5
10:15 1018 30.06 847 25.01 22.8 73.1 31 5 41.1
10:20 1018 30.06 847 25.01 23.4 74.1 29 4.3 39.8
10:25 1018 30.06 847 25.01 23.2 73.7 29 4.3 39.7
10:30 1018 30.06 847 25.01 22.9 73.3 28 3.7 38.7
10:35 1018 30.06 847 25.01 22.9 73.3 30 4.6 40.2
10:40 1017 30.03 847 25.01 22.8 73 28 3.7 38.7
10:45 1017 30.03 847 25.01 22.8 73 28 3.5 38.3
10:50 1017 30.03 847 25.01 23.2 73.7 28 3.9 39.1
10:55 1017 30.03 847 25.01 23.2 73.7 30 4.7 40.4
11:00 1017 30.03 847 25.01 23.3 73.9 28 4 39.2
11:05 1017 30.03 847 25.01 23.5 74.3 27 3.7 38.7
11:10 1017 30.03 847 25.01 23.5 74.2 28 4.2 39.6
11:15 1017 30.03 847 25.01 23.3 74 27 3.3 38
11:20 1017 30.03 846 24.98 23.4 74.1 27 3.7 38.7
11:25 1017 30.03 846 24.98 23.3 73.9 28 3.9 39.1
11:30 1017 30.03 846 24.98 23.6 74.6 27 3.7 38.6
11:35 1017 30.03 846 24.98 24.6 76.3 26 4 39.3
11:40 1017 30.03 846 24.98 24.3 75.8 27 4.2 39.5
11:45 1017 30.03 846 24.98 23.8 74.9 26 3.2 37.8
11:50 1017 30.03 846 24.98 23.7 74.7 25 2.5 36.6
11:55 1017 30.03 846 24.98 23.7 74.6 26 3.3 37.9
12:00 1017 30.03 846 24.98 24.6 76.3 23 2.4 36.3
12:05 1017 30.03 846 24.98 24.7 76.4 23 2.4 36.3
12:10 1017 30.03 846 24.98 24.4 75.9 22 1.6 34.9
12:15 1017 30.03 846 24.98 24.5 76 21 0.9 33.7
12:20 1017 30.03 846 24.98 24.5 76 23 2 35.6
12:25 1017 30.03 846 24.98 24.3 75.8 22 1.8 35.2
12:30 1017 30.03 846 24.98 24.3 75.7 22 1.2 34.2
12:35 1017 30.03 846 24.98 24.1 75.5 21 0.5 32.8
12:40 1017 30.03 846 24.98 24.7 76.5 21 1.3 34.4
12:45 1017 30.03 846 24.98 24.9 76.7 22 1.6 34.9
12:50 1016 30 846 24.98 24.4 75.9 22 1.3 34.3
12:55 1016 30 846 24.98 25 76.9 22 2 35.6
13:00 1016 30 846 24.98 25.4 77.7 19 0.6 33.2
13:05 1016 30 845 24.95 25.4 77.7 18 -0.2 31.6
13:10 1016 30 845 24.95 24.3 75.8 20 0.1 32.1
13:15 1016 30 845 24.95 24.5 76.2 20 0.1 32.1
13:20 1016 30 845 24.95 24.7 76.4 20 0.6 33.1
13:25 1016 30 845 24.95 24.8 76.7 19 0.1 32.3
13:30 1016 30 845 24.95 25.5 77.8 19 0.5 32.8
13:35 1016 30 845 24.95 25.2 77.4 19 -0.1 31.8
13:40 1016 30 845 24.95 24.3 75.7 20 -0 31.9
13:45 1016 30 845 24.95 25.1 77.1 19 -0.2 31.6
13:50 1016 30 845 24.95 26.1 79 18 -0.1 31.8
13:55 1016 30 845 24.95 26.1 79 17 -0.9 30.3
14:00 1016 30 845 24.95 25.8 78.5 18 -0 32
14:05 1016 30 845 24.95 24.7 76.4 19 -0.1 31.8
14:10 1016 30 845 24.95 24.7 76.5 19 -0.2 31.7
14:15 1015 29.97 845 24.95 25 77.1 19 -0.1 31.9
14:20 1015 29.97 845 24.95 24.4 75.9 19 -0.7 30.7
14:25 1015 29.97 845 24.95 26.1 78.9 17 -0.3 31.4
14:30 1015 29.97 845 24.95 26.3 79.4 17 -0.6 30.9
14:35 1015 29.97 845 24.95 26.2 79.1 17 -0.4 31.3
14:40 1015 29.97 845 24.95 26 78.7 15 -2 28.4
14:45 1015 29.97 844 24.92 26 78.8 17 -0.8 30.6
14:50 1015 29.97 844 24.92 26.2 79.1 17 -0.8 30.5
14:55 1015 29.97 844 24.92 26.3 79.4 16 -1.6 29.1
15:00 1015 29.97 844 24.92 26.9 80.4 15 -1.5 29.3
15:05 1015 29.97 844 24.92 27.2 80.9 15 -1.6 29.1
15:10 1015 29.97 844 24.92 27.1 80.7 16 -0.3 31.4
15:15 1015 29.97 844 24.92 26.9 80.5 16 -0.9 30.4
15:20 1015 29.97 844 24.92 26.5 79.7 15 -1.8 28.7
15:25 1015 29.97 844 24.92 26.6 79.8 16 -1.4 29.4
15:30 1015 29.97 844 24.92 26.8 80.2 16 -1.2 29.8
15:35 1015 29.97 844 24.92 27 80.6 15 -1.6 29.2
15:40 1015 29.97 844 24.92 27.1 80.8 15 -1.4 29.5
15:45 1015 29.97 844 24.92 26.9 80.5 15 -1.5 29.4
15:50 1015 29.97 844 24.92 26.7 80.1 15 -1.4 29.4
15:55 1014 29.94 844 24.92 26.9 80.4 15 -2 28.3
16:00 1014 29.94 844 24.92 27.3 81.1 15 -1.8 28.8
16:05 1014 29.94 843 24.89 27.2 81 15 -1 30.1
16:10 1014 29.94 843 24.89 27.4 81.2 15 -1.2 29.9
16:15 1014 29.94 843 24.89 27.1 80.8 15 -1.7 28.9
16:20 1014 29.94 843 24.89 27.1 80.7 15 -1.3 29.7
16:25 1014 29.94 843 24.89 26.7 80.1 15 -2 28.4
16:30 1014 29.94 843 24.89 26.7 80 15 -2.2 28.1
16:35 1014 29.94 843 24.89 26.6 79.9 15 -2.2 28
16:40 1014 29.94 843 24.89 27.5 81.5 15 -1 30.3
16:45 1014 29.94 843 24.89 27.7 81.9 14 -1.9 28.6
16:50 1014 29.94 843 24.89 27.1 80.7 15 -1.7 28.9
16:55 1014 29.94 843 24.89 27.2 80.9 14 -2.6 27.3
17:00 1014 29.94 843 24.89 27.2 80.9 14 -2.5 27.5
17:05 1014 29.94 843 24.89 27.2 81 15 -1.8 28.8
17:10 1014 29.94 843 24.89 26.6 79.8 15 -2.2 28
17:15 1014 29.94 843 24.89 27.2 81 14 -2.4 27.7
17:20 1014 29.94 843 24.89 27.2 81 14 -2.1 28.3
17:25 1014 29.94 843 24.89 27 80.5 14 -2.1 28.2
17:30 1014 29.94 843 24.89 27.1 80.9 14 -2.3 27.8
17:35 1014 29.94 843 24.89 27 80.6 14 -2.7 27.1
17:40 1013 29.91 843 24.89 27.2 80.9 14 -2.4 27.7
17:45 1013 29.91 843 24.89 27.2 80.9 14 -2.4 27.6
17:50 1013 29.91 843 24.89 27.1 80.7 15 -1.4 29.5
17:55 1013 29.91 843 24.89 26.8 80.3 15 -2.1 28.2
18:00 1013 29.91 843 24.89 25.9 78.7 15 -2.7 27.2
18:05 1013 29.91 843 24.89 26.3 79.4 14 -2.7 27.1
18:10 1013 29.91 843 24.89 26.7 80.1 14 -2.6 27.3
18:15 1013 29.91 843 24.89 26.9 80.3 14 -2.6 27.2
18:20 1013 29.91 843 24.89 26.5 79.7 15 -2.1 28.2
18:25 1013 29.91 843 24.89 26.2 79.2 15 -2.1 28.2
18:30 1013 29.91 842 24.86 26.4 79.5 15 -2.1 28.3
18:35 1013 29.91 842 24.86 26 78.8 15 -2.3 27.8
18:40 1013 29.91 842 24.86 25.9 78.5 15 -2.7 27.1
18:45 1013 29.91 842 24.86 25.6 78.2 15 -2.8 26.9
18:50 1013 29.91 842 24.86 25.6 78 15 -2.7 27.1
18:55 1013 29.91 842 24.86 25.4 77.7 17 -1.4 29.5
19:00 1013 29.91 842 24.86 25.1 77.2 16 -2.6 27.4
19:05 1013 29.91 842 24.86 24.8 76.6 16 -2.2 28
19:10 1013 29.91 842 24.86 24.5 76 17 -1.6 29.2
19:15 1013 29.91 842 24.86 24.1 75.4 17 -2 28.4
19:20 1013 29.91 842 24.86 24.1 75.3 17 -2 28.4
19:25 1013 29.91 842 24.86 24.2 75.6 18 -1.6 29.2
19:30 1013 29.91 842 24.86 24 75.2 18 -1.4 29.5
19:35 1013 29.91 842 24.86 23.7 74.7 19 -1.4 29.5
19:40 1013 29.91 842 24.86 23.6 74.5 19 -1.3 29.6
19:45 1013 29.91 842 24.86 23.6 74.5 18 -1.6 29.2
19:50 1013 29.91 843 24.89 23.7 74.7 19 -0.9 30.3
19:55 1013 29.91 843 24.89 23.9 75 20 -0.5 31.1
20:00 1013 29.91 843 24.89 23.9 74.9 19 -0.6 30.9
20:05 1013 29.91 843 24.89 23.8 74.8 19 -1.3 29.6
20:10 1013 29.91 843 24.89 23.7 74.6 19 -0.9 30.4
20:15 1014 29.94 843 24.89 23.6 74.5 19 -0.8 30.5
20:20 1014 29.94 843 24.89 23.5 74.2 20 -0.5 31
20:25 1014 29.94 843 24.89 23.3 74 21 0.1 32.2
20:30 1014 29.94 843 24.89 23.2 73.8 21 -0.3 31.5
20:35 1014 29.94 843 24.89 23.1 73.6 21 -0.4 31.2
20:40 1014 29.94 843 24.89 23 73.3 22 0.6 33.1
20:45 1014 29.94 843 24.89 22.8 73 22 0.3 32.5
20:50 1014 29.94 843 24.89 22.5 72.4 23 0.5 32.9
20:55 1014 29.94 843 24.89 22.2 71.9 24 0.6 33
21:00 1014 29.94 843 24.89 21.9 71.4 24 0.5 32.9
21:05 1014 29.94 843 24.89 21.7 71 25 0.8 33.5
21:10 1014 29.94 843 24.89 21.5 70.8 25 0.7 33.3
21:15 1014 29.94 843 24.89 21.4 70.6 24 0.4 32.7
21:20 1014 29.94 843 24.89 21.3 70.3 25 0.4 32.7
21:25 1014 29.94 843 24.89 21.1 70 25 0.5 32.8
21:30 1014 29.94 843 24.89 20.9 69.6 25 0.4 32.6
21:35 1014 29.94 843 24.89 20.8 69.4 25 0.3 32.5
21:40 1014 29.94 844 24.92 20.6 69.1 25 0.1 32.3
21:45 1015 29.97 844 24.92 20.1 68.2 28 1.1 33.9
21:50 1015 29.97 844 24.92 19.7 67.4 29 1.3 34.3
21:55 1015 29.97 844 24.92 19.4 66.9 37 4.4 39.9
22:00 1015 29.97 844 24.92 18.4 65.1 44 6.1 43.1
22:05 1015 29.97 844 24.92 17.8 64.1 41 4.5 40
22:10 1015 29.97 844 24.92 17.7 63.8 36 2.5 36.4
22:15 1015 29.97 844 24.92 17.7 63.8 36 2.5 36.5
22:20 1015 29.97 844 24.92 17.3 63.1 36 2.3 36.1
22:25 1015 29.97 844 24.92 17.1 62.7 36 2.1 35.8
22:30 1015 29.97 844 24.92 16.9 62.5 34 1.3 34.3
22:35 1015 29.97 844 24.92 17.2 62.9 34 1.1 34
22:40 1015 29.97 845 24.95 17.2 63 34 1.4 34.5
22:45 1015 29.97 845 24.95 17.2 62.9 34 1.2 34.2
22:50 1015 29.97 845 24.95 17.2 63 33 0.9 33.7
22:55 1015 29.97 845 24.95 17.3 63.1 32 0.6 33.1
23:00 1015 29.97 845 24.95 17.3 63.1 32 0.7 33.3
23:05 1015 29.97 845 24.95 17 62.6 34 1.1 34
23:10 1015 29.97 845 24.95 16.4 61.5 42 3.5 38.3
23:15 1016 30 845 24.95 15.9 60.6 38 1.8 35.3
23:20 1016 30 845 24.95 16 60.7 36 1 33.8
23:25 1016 30 845 24.95 16.3 61.3 36 1.2 34.1
23:30 1016 30 845 24.95 16.3 61.3 35 1 33.7
23:35 1016 30 845 24.95 16.2 61.2 35 1 33.7
23:40 1016 30 845 24.95 16.1 61 35 0.8 33.4
23:45 1016 30 845 24.95 16.2 61.1 36 1.1 34.1
23:50 1016 30 845 24.95 16 60.8 36 0.9 33.7
23:55 1016 30 845 24.95 15.8 60.4 37 1.1 33.9
24:00 1016 30 845 24.95 15.7 60.3 38 1.6 34.9